Time;durP1;ratioP1;P1;durP2;ratioP2;P2;SDS_P1;SDS_P2;PMS_P1;PMS_P2;Temp;Humidity;BMP_temperature;BMP_pressure;BME280_temperature;BME280_humidity;BME280_pressure;Samples;Min_cycle;Max_cycle;Signal;HPM_P1;HPM_P2
2024/05/02 00:00:30;;;;;;;2.40;1.57;;;16.30;99.90;;;;;;6579520;21;20239;-78
2024/05/02 00:02:59;;;;;;;3.37;1.40;;;16.30;99.90;;;;;;6579806;21;20254;-78
2024/05/02 00:05:30;;;;;;;3.57;1.90;;;16.20;99.90;;;;;;6581694;21;20216;-78
2024/05/02 00:07:58;;;;;;;5.53;1.93;;;16.20;99.90;;;;;;6579991;21;20249;-78
2024/05/02 00:10:26;;;;;;;2.50;1.50;;;16.30;99.90;;;;;;6579441;21;20274;-77
2024/05/02 00:12:55;;;;;;;3.03;1.60;;;16.20;99.90;;;;;;6581467;21;20215;-78
2024/05/02 00:15:25;;;;;;;2.70;1.63;;;16.00;99.90;;;;;;6579611;21;20261;-76
2024/05/02 00:17:54;;;;;;;5.17;1.70;;;16.00;99.90;;;;;;6581539;21;20227;-76
2024/05/02 00:20:22;;;;;;;2.40;1.50;;;15.90;99.90;;;;;;6581743;21;20211;-76
2024/05/02 00:22:53;;;;;;;1.77;1.40;;;15.90;99.90;;;;;;6581885;21;20254;-76
2024/05/02 00:25:22;;;;;;;5.07;1.90;;;15.70;99.90;;;;;;6582076;21;20219;-77
2024/05/02 00:27:50;;;;;;;2.57;1.70;;;15.70;99.90;;;;;;6581383;21;20215;-77
2024/05/02 00:30:18;;;;;;;3.63;2.00;;;15.70;99.90;;;;;;6582155;21;20264;-79
2024/05/02 00:32:47;;;;;;;3.07;1.73;;;15.90;99.90;;;;;;6581257;21;20252;-76
2024/05/02 00:35:16;;;;;;;3.80;1.90;;;15.90;99.90;;;;;;6583646;21;20215;-76
2024/05/02 00:37:44;;;;;;;4.57;1.80;;;15.80;99.90;;;;;;6583438;21;20223;-76
2024/05/02 00:40:16;;;;;;;4.40;2.03;;;15.80;99.90;;;;;;6581598;21;20257;-76
2024/05/02 00:42:50;;;;;;;4.13;1.97;;;15.80;99.90;;;;;;6581583;21;20238;-78
2024/05/02 00:45:19;;;;;;;3.23;1.73;;;15.70;99.90;;;;;;6584103;21;20270;-78
2024/05/02 00:47:49;;;;;;;2.73;1.60;;;15.50;99.90;;;;;;6583911;21;20218;-78
2024/05/02 00:50:18;;;;;;;1.60;1.50;;;15.40;99.90;;;;;;6583557;21;20214;-77
2024/05/02 00:52:47;;;;;;;4.73;1.93;;;15.20;99.90;;;;;;6583160;21;20219;-77
2024/05/02 00:55:18;;;;;;;4.60;1.70;;;15.20;99.90;;;;;;6581403;21;20246;-76
2024/05/02 00:57:47;;;;;;;2.20;1.80;;;15.20;99.90;;;;;;6583464;21;20214;-77
2024/05/02 01:00:15;;;;;;;4.07;1.80;;;15.10;99.90;;;;;;6573511;21;20240;-77
2024/05/02 01:02:44;;;;;;;1.80;1.50;;;15.00;99.90;;;;;;6530925;22;20220;-76
2024/05/02 01:05:10;;;;;;;3.70;1.90;;;14.90;99.90;;;;;;6486008;22;20225;-76
2024/05/02 01:07:38;;;;;;;2.87;1.80;;;14.90;99.90;;;;;;6485999;22;20262;-76
2024/05/02 01:10:07;;;;;;;3.70;1.80;;;14.80;99.90;;;;;;6531296;22;20339;-76
2024/05/02 01:12:39;;;;;;;4.30;1.70;;;14.70;99.90;;;;;;6485900;22;20274;-77
2024/05/02 01:15:08;;;;;;;3.33;2.10;;;14.60;99.90;;;;;;6531107;22;20254;-77
2024/05/02 01:17:36;;;;;;;4.43;1.90;;;14.60;99.90;;;;;;6530824;22;20247;-76
2024/05/02 01:20:05;;;;;;;5.80;1.73;;;14.60;99.90;;;;;;6531103;22;20216;-76
2024/05/02 01:22:36;;;;;;;1.97;1.77;;;14.60;99.90;;;;;;6485912;22;20271;-77
2024/05/02 01:25:05;;;;;;;2.53;2.00;;;14.60;99.90;;;;;;6531136;22;20216;-78
2024/05/02 01:27:34;;;;;;;4.27;1.93;;;14.60;99.90;;;;;;6531123;22;20216;-77
2024/05/02 01:30:02;;;;;;;6.30;2.10;;;14.60;99.90;;;;;;6485907;22;20262;-81
2024/05/02 01:32:31;;;;;;;4.13;1.90;;;14.50;99.90;;;;;;6530714;22;20254;-77
2024/05/02 01:35:00;;;;;;;8.30;2.43;;;14.60;99.90;;;;;;6530710;22;20298;-77
2024/05/02 01:37:29;;;;;;;4.13;2.30;;;14.60;99.90;;;;;;6485636;22;20231;-77
2024/05/02 01:40:00;;;;;;;3.47;1.90;;;14.50;99.90;;;;;;6530782;22;20216;-77
2024/05/02 01:42:28;;;;;;;4.80;2.07;;;14.50;99.90;;;;;;6530187;22;20215;-77
2024/05/02 01:44:57;;;;;;;2.30;1.80;;;14.50;99.90;;;;;;6485674;22;20299;-77
2024/05/02 01:47:25;;;;;;;2.90;2.27;;;14.50;99.90;;;;;;6530500;22;20216;-77
2024/05/02 01:50:03;;;;;;;5.37;2.03;;;14.40;99.90;;;;;;6530697;22;20393;-77
2024/05/02 01:52:32;;;;;;;3.03;1.77;;;14.40;99.90;;;;;;6485203;22;20227;-78
2024/05/02 01:55:03;;;;;;;2.17;1.77;;;14.50;99.90;;;;;;6485590;22;20270;-78
2024/05/02 01:57:32;;;;;;;2.10;1.70;;;14.50;99.90;;;;;;6531149;22;20216;-78
2024/05/02 02:00:00;;;;;;;2.80;2.17;;;14.50;99.90;;;;;;6485894;21;20231;-78
2024/05/02 02:02:29;;;;;;;3.30;1.80;;;14.50;99.90;;;;;;6530552;22;20250;-78
2024/05/02 02:04:57;;;;;;;5.70;1.97;;;14.50;99.90;;;;;;6530270;22;20223;-78
2024/05/02 02:07:26;;;;;;;3.73;2.23;;;14.50;99.90;;;;;;6485692;22;20224;-78
2024/05/02 02:09:54;;;;;;;3.37;2.00;;;14.60;99.90;;;;;;6530662;22;20221;-79
2024/05/02 02:12:28;;;;;;;2.43;1.80;;;14.40;99.90;;;;;;6530248;22;20215;-78
2024/05/02 02:14:56;;;;;;;9.17;2.73;;;14.40;99.90;;;;;;6530111;22;20270;-78
2024/05/02 02:17:24;;;;;;;3.07;1.90;;;14.40;99.90;;;;;;6485266;22;20262;-78
2024/05/02 02:19:53;;;;;;;5.20;2.00;;;14.50;99.90;;;;;;6485145;22;20273;-78
2024/05/02 02:22:21;;;;;;;1.97;1.60;;;14.50;99.90;;;;;;6530124;22;20266;-78
2024/05/02 02:24:50;;;;;;;4.30;2.00;;;14.40;99.90;;;;;;6485223;22;20232;-78
2024/05/02 02:27:18;;;;;;;7.93;2.10;;;14.30;99.90;;;;;;6530500;22;20219;-78
2024/05/02 02:29:49;;;;;;;4.27;1.90;;;14.40;99.90;;;;;;6485231;22;20255;-78
2024/05/02 02:32:18;;;;;;;8.80;2.13;;;14.30;99.90;;;;;;6530936;22;20266;-78
2024/05/02 02:34:46;;;;;;;2.17;1.70;;;14.30;99.90;;;;;;6530042;22;20216;-78
2024/05/02 02:37:15;;;;;;;2.90;2.17;;;14.30;99.90;;;;;;6527278;22;20258;-78
2024/05/02 02:39:43;;;;;;;3.87;1.83;;;14.20;99.90;;;;;;6485186;22;20232;-78
2024/05/02 02:42:11;;;;;;;2.50;2.03;;;14.30;99.90;;;;;;6485074;22;20228;-78
2024/05/02 02:44:40;;;;;;;2.10;1.90;;;14.30;99.90;;;;;;6484885;22;20273;-78
2024/05/02 02:47:11;;;;;;;4.17;1.97;;;14.10;99.90;;;;;;6485148;22;20275;-78
2024/05/02 02:49:39;;;;;;;2.60;1.90;;;13.90;99.90;;;;;;6485101;22;20224;-78
2024/05/02 02:52:08;;;;;;;2.27;1.90;;;13.80;99.90;;;;;;6530290;22;20216;-78
2024/05/02 02:54:36;;;;;;;2.57;1.83;;;13.80;99.90;;;;;;6484893;22;20228;-78
2024/05/02 02:57:05;;;;;;;3.90;2.07;;;13.70;99.90;;;;;;6484930;22;20240;-78
2024/05/02 02:59:33;;;;;;;7.23;2.37;;;13.70;99.90;;;;;;6530327;22;20220;-78
2024/05/02 03:02:02;;;;;;;5.33;2.27;;;13.60;99.90;;;;;;6570696;21;20238;-78
2024/05/02 03:04:33;;;;;;;2.30;2.00;;;13.70;99.90;;;;;;6579931;21;20257;-78
2024/05/02 03:07:01;;;;;;;3.73;2.43;;;13.70;99.90;;;;;;6582278;21;20266;-78
2024/05/02 03:09:30;;;;;;;2.50;1.90;;;13.80;99.90;;;;;;6581667;21;20270;-78
2024/05/02 03:12:00;;;;;;;2.80;2.30;;;13.80;99.90;;;;;;6580257;21;20234;-78
2024/05/02 03:14:29;;;;;;;3.63;1.97;;;13.70;99.90;;;;;;6580064;21;20227;-78
2024/05/02 03:16:58;;;;;;;4.23;2.20;;;13.70;99.90;;;;;;6579915;21;20223;-78
2024/05/02 03:19:26;;;;;;;3.67;2.20;;;13.70;99.90;;;;;;6579884;21;20235;-78
2024/05/02 03:21:57;;;;;;;2.57;2.03;;;13.80;99.90;;;;;;6581930;21;20215;-78
2024/05/02 03:24:26;;;;;;;2.17;1.83;;;13.70;99.90;;;;;;6582360;21;20215;-78
2024/05/02 03:26:54;;;;;;;5.90;2.47;;;13.70;99.90;;;;;;6581938;21;20215;-78
2024/05/02 03:29:23;;;;;;;5.10;2.20;;;13.80;99.90;;;;;;6579892;21;20238;-78
2024/05/02 03:31:51;;;;;;;4.90;2.10;;;13.70;99.90;;;;;;6579924;21;20226;-78
2024/05/02 03:34:20;;;;;;;4.00;2.40;;;13.70;99.90;;;;;;6579781;21;20230;-78
2024/05/02 03:36:48;;;;;;;2.30;2.10;;;13.70;99.90;;;;;;6579680;21;20261;-78
2024/05/02 03:39:19;;;;;;;2.97;2.20;;;13.70;99.90;;;;;;6579956;21;20222;-78
2024/05/02 03:41:48;;;;;;;4.53;2.27;;;13.60;99.90;;;;;;6581971;21;20215;-78
2024/05/02 03:44:16;;;;;;;3.90;1.90;;;13.50;99.90;;;;;;6579654;21;20227;-78
2024/05/02 03:46:45;;;;;;;4.17;2.30;;;13.60;99.90;;;;;;6581661;21;20215;-78
2024/05/02 03:49:13;;;;;;;2.73;2.33;;;13.70;99.90;;;;;;6581928;21;20215;-78
2024/05/02 03:51:42;;;;;;;8.87;2.20;;;13.50;99.90;;;;;;6582167;21;20223;-78
2024/05/02 03:54:11;;;;;;;6.17;2.13;;;13.50;99.90;;;;;;6579596;21;20350;-78
2024/05/02 03:56:42;;;;;;;3.00;2.17;;;13.60;99.90;;;;;;6581673;21;20298;-78
2024/05/02 03:59:10;;;;;;;4.03;2.37;;;13.50;99.90;;;;;;6582038;21;20245;-78
2024/05/02 04:01:38;;;;;;;3.17;2.23;;;13.60;99.90;;;;;;6542609;21;20228;-78
2024/05/02 04:04:07;;;;;;;6.73;2.40;;;13.60;99.90;;;;;;6484344;22;20232;-78
2024/05/02 04:06:36;;;;;;;2.47;2.20;;;13.60;99.90;;;;;;6486523;22;20274;-78
2024/05/02 04:09:04;;;;;;;5.23;2.87;;;13.70;99.90;;;;;;6486704;22;20262;-78
2024/05/02 04:11:33;;;;;;;5.93;2.50;;;13.50;99.90;;;;;;6531806;22;20273;-78
2024/05/02 04:14:05;;;;;;;3.20;2.20;;;13.70;99.90;;;;;;6486451;22;20224;-78
2024/05/02 04:16:33;;;;;;;4.60;2.00;;;13.60;99.90;;;;;;6486892;22;20228;-78
2024/05/02 04:19:02;;;;;;;3.40;2.50;;;13.80;99.90;;;;;;6531485;22;20216;-78
2024/05/02 04:21:30;;;;;;;3.50;2.30;;;13.80;99.90;;;;;;6531541;22;20220;-78
2024/05/02 04:23:59;;;;;;;2.73;2.17;;;13.60;99.90;;;;;;6531215;22;20223;-78
2024/05/02 04:26:27;;;;;;;2.27;2.07;;;13.50;99.90;;;;;;6531687;22;20246;-77
2024/05/02 04:28:56;;;;;;;4.93;2.30;;;13.70;99.90;;;;;;6486802;22;20232;-78
2024/05/02 04:31:27;;;;;;;3.27;2.57;;;13.70;99.90;;;;;;6486661;22;20240;-78
2024/05/02 04:33:56;;;;;;;3.23;2.40;;;13.70;99.90;;;;;;6486701;22;20231;-78
2024/05/02 04:36:25;;;;;;;4.37;2.27;;;13.70;99.90;;;;;;6531627;22;20216;-78
2024/05/02 04:38:53;;;;;;;3.43;2.10;;;13.70;99.90;;;;;;6531769;22;20216;-78
2024/05/02 04:41:22;;;;;;;3.50;2.10;;;13.70;99.90;;;;;;6531726;22;20219;-78
2024/05/02 04:43:50;;;;;;;5.90;2.23;;;14.00;99.90;;;;;;6486638;22;20227;-78
2024/05/02 04:46:19;;;;;;;5.63;2.10;;;14.00;99.90;;;;;;6486493;22;20228;-78
2024/05/02 04:48:50;;;;;;;4.77;2.40;;;14.20;99.90;;;;;;6531382;22;20299;-77
2024/05/02 04:51:18;;;;;;;3.90;2.20;;;14.30;99.90;;;;;;6531979;22;20224;-77
2024/05/02 04:53:47;;;;;;;2.63;2.13;;;14.30;99.90;;;;;;6486419;22;20271;-78
2024/05/02 04:56:15;;;;;;;2.83;2.10;;;14.30;99.90;;;;;;6531421;22;20232;-78
2024/05/02 04:58:44;;;;;;;3.37;2.27;;;14.30;99.90;;;;;;6486589;22;20228;-79
2024/05/02 05:01:12;;;;;;;3.43;2.50;;;14.60;99.90;;;;;;6530972;21;20232;-78
2024/05/02 05:03:41;;;;;;;4.37;2.33;;;14.60;99.90;;;;;;6486015;22;20232;-79
2024/05/02 05:06:12;;;;;;;2.40;2.13;;;14.60;99.90;;;;;;6486336;22;20232;-79
2024/05/02 05:08:41;;;;;;;6.03;2.33;;;14.70;99.90;;;;;;6531446;22;20263;-79
2024/05/02 05:11:09;;;;;;;2.33;2.13;;;14.80;99.90;;;;;;6486248;22;20227;-79
2024/05/02 05:13:38;;;;;;;2.00;1.80;;;15.00;99.90;;;;;;6530955;22;20220;-78
2024/05/02 05:16:08;;;;;;;3.30;2.13;;;15.00;99.90;;;;;;6531513;22;20262;-79
2024/05/02 05:18:37;;;;;;;5.40;2.03;;;15.00;99.90;;;;;;6486130;22;20274;-79
2024/05/02 05:21:06;;;;;;;6.07;2.27;;;15.20;99.90;;;;;;6485872;22;20287;-79
2024/05/02 05:23:37;;;;;;;3.33;2.10;;;15.40;99.90;;;;;;6486010;22;20263;-79
2024/05/02 05:26:06;;;;;;;3.97;2.20;;;15.60;99.90;;;;;;6531029;22;20239;-79
2024/05/02 05:28:35;;;;;;;2.37;1.80;;;15.60;99.90;;;;;;6530718;22;20216;-79
2024/05/02 05:31:03;;;;;;;3.00;2.03;;;15.60;99.90;;;;;;6530668;22;20216;-79
2024/05/02 05:33:32;;;;;;;3.60;2.10;;;15.60;99.90;;;;;;6530922;22;20267;-79
2024/05/02 05:36:00;;;;;;;4.00;2.17;;;15.70;99.90;;;;;;6530756;22;20216;-78
2024/05/02 05:38:29;;;;;;;3.87;2.17;;;15.60;99.90;;;;;;6486050;22;20313;-78
2024/05/02 05:41:00;;;;;;;5.13;2.27;;;15.70;99.90;;;;;;6530484;22;20336;-79
2024/05/02 05:43:29;;;;;;;4.00;2.30;;;15.70;99.90;;;;;;6531491;22;20267;-79
2024/05/02 05:45:57;;;;;;;3.80;2.27;;;15.90;99.90;;;;;;6485873;22;20231;-79
2024/05/02 05:48:25;;;;;;;4.20;2.30;;;15.90;99.90;;;;;;6530368;22;20220;-78
2024/05/02 05:50:54;;;;;;;2.57;1.90;;;16.20;99.90;;;;;;6530378;22;20220;-79
2024/05/02 05:53:22;;;;;;;6.23;2.10;;;16.40;99.90;;;;;;6530461;22;20309;-79
2024/05/02 05:55:51;;;;;;;3.27;2.03;;;16.50;99.90;;;;;;6485709;22;20287;-79
2024/05/02 05:58:22;;;;;;;3.83;2.30;;;16.60;99.90;;;;;;6530510;22;20216;-79
2024/05/02 06:00:50;;;;;;;2.60;1.93;;;16.70;99.90;;;;;;6530509;21;20236;-79
2024/05/02 06:03:19;;;;;;;2.47;1.97;;;16.80;99.90;;;;;;6530554;22;20255;-79
2024/05/02 06:05:48;;;;;;;8.43;2.40;;;16.60;99.90;;;;;;6485395;22;20231;-79
2024/05/02 06:08:17;;;;;;;2.50;1.90;;;16.70;99.90;;;;;;6530815;22;20322;-79
2024/05/02 06:10:45;;;;;;;3.23;2.00;;;16.60;99.90;;;;;;6530440;22;20215;-79
2024/05/02 06:13:14;;;;;;;4.50;2.20;;;16.50;99.90;;;;;;6530456;22;20212;-79
2024/05/02 06:15:46;;;;;;;4.90;2.13;;;16.70;99.90;;;;;;6530372;22;20271;-79
2024/05/02 06:18:15;;;;;;;4.40;2.20;;;16.80;99.90;;;;;;6530132;22;20338;-79
2024/05/02 06:20:43;;;;;;;4.30;2.00;;;16.80;99.90;;;;;;6530634;22;20224;-79
2024/05/02 06:23:12;;;;;;;3.60;2.23;;;17.10;99.90;;;;;;6529669;22;20228;-79
2024/05/02 06:25:41;;;;;;;2.80;2.10;;;17.00;99.90;;;;;;6530351;22;20215;-79
2024/05/02 06:28:09;;;;;;;4.13;2.30;;;17.20;99.90;;;;;;6484804;22;20224;-79
2024/05/02 06:30:38;;;;;;;4.43;2.40;;;17.50;99.90;;;;;;6485351;22;20224;-79
2024/05/02 06:33:09;;;;;;;7.20;2.13;;;17.60;99.90;;;;;;6530227;22;20234;-79
2024/05/02 06:35:38;;;;;;;10.10;2.00;;;17.70;99.90;;;;;;6530060;22;20266;-79
2024/05/02 06:38:06;;;;;;;3.27;2.10;;;17.60;99.90;;;;;;6485552;22;20224;-78
2024/05/02 06:40:34;;;;;;;3.27;2.20;;;17.60;99.90;;;;;;6485138;22;20247;-78
2024/05/02 06:43:07;;;;;;;3.07;2.07;;;17.80;99.90;;;;;;6530751;22;20262;-78
2024/05/02 06:45:35;;;;;;;4.57;2.10;;;18.10;99.90;;;;;;6485359;22;20231;-78
2024/05/02 06:48:03;;;;;;;4.27;2.10;;;18.30;99.90;;;;;;6485230;22;20228;-78
2024/05/02 06:50:35;;;;;;;3.23;2.10;;;18.80;99.90;;;;;;6485025;22;20228;-78
2024/05/02 06:53:03;;;;;;;2.47;2.00;;;18.90;99.90;;;;;;6485564;22;20258;-79
2024/05/02 06:55:32;;;;;;;5.80;2.07;;;19.10;99.90;;;;;;6484871;22;20244;-79
2024/05/02 06:58:01;;;;;;;3.87;2.03;;;19.30;99.90;;;;;;6530107;22;20298;-79
2024/05/02 07:00:29;;;;;;;6.50;2.17;;;19.10;99.90;;;;;;6503651;21;20238;-79
2024/05/02 07:02:58;;;;;;;6.20;2.00;;;19.40;99.90;;;;;;6580429;21;20227;-79
2024/05/02 07:05:26;;;;;;;4.17;1.77;;;19.40;99.90;;;;;;6579971;21;20227;-79
2024/05/02 07:07:58;;;;;;;4.03;2.13;;;19.20;99.90;;;;;;6582032;21;20215;-79
2024/05/02 07:10:26;;;;;;;4.33;1.80;;;19.10;99.90;;;;;;6580050;21;20223;-79
2024/05/02 07:12:54;;;;;;;5.23;1.97;;;19.00;99.90;;;;;;6580039;21;20227;-79
2024/05/02 07:15:23;;;;;;;2.37;1.97;;;18.80;99.90;;;;;;6582099;21;20215;-79
2024/05/02 07:17:51;;;;;;;5.00;1.90;;;18.60;99.90;;;;;;6581759;21;20215;-79
2024/05/02 07:20:20;;;;;;;4.97;2.30;;;18.80;99.90;;;;;;6582208;21;20215;-79
2024/05/02 07:22:48;;;;;;;2.97;2.10;;;18.90;99.90;;;;;;6580173;21;20258;-79
2024/05/02 07:25:19;;;;;;;4.27;1.80;;;19.10;99.90;;;;;;6582692;21;20262;-79
2024/05/02 07:27:48;;;;;;;3.00;2.03;;;19.70;99.90;;;;;;6582548;21;20215;-79
2024/05/02 07:30:17;;;;;;;2.60;1.77;;;19.80;99.90;;;;;;6581707;21;20254;-80
2024/05/02 07:32:46;;;;;;;5.47;2.03;;;19.90;99.90;;;;;;6582384;21;20265;-79
2024/05/02 07:35:14;;;;;;;8.87;2.03;;;20.10;99.90;;;;;;6582448;21;20227;-79
2024/05/02 07:37:43;;;;;;;2.63;1.67;;;20.90;99.90;;;;;;6580446;21;20230;-79
2024/05/02 07:40:11;;;;;;;6.40;2.00;;;21.80;99.90;;;;;;6582181;21;20265;-79
2024/05/02 07:42:43;;;;;;;1.83;1.73;;;22.40;99.90;;;;;;6584320;21;20253;-80
2024/05/02 07:45:11;;;;;;;2.60;1.63;;;21.80;99.90;;;;;;6584587;21;20250;-80
2024/05/02 07:47:40;;;;;;;2.87;1.77;;;21.70;99.90;;;;;;6584252;21;20265;-80
2024/05/02 07:50:09;;;;;;;3.03;1.90;;;21.50;99.90;;;;;;6584087;21;20215;-80
2024/05/02 07:52:37;;;;;;;2.73;1.97;;;22.10;99.90;;;;;;6583937;21;20249;-80
2024/05/02 07:55:07;;;;;;;2.73;1.90;;;22.60;99.90;;;;;;6583885;21;20215;-80
2024/05/02 07:57:36;;;;;;;4.40;2.07;;;22.90;99.90;;;;;;6582090;21;20251;-80
2024/05/02 08:00:08;;;;;;;5.37;2.10;;;22.70;99.90;;;;;;6577238;21;20265;-80
2024/05/02 08:02:37;;;;;;;4.03;1.90;;;22.60;99.90;;;;;;6486908;22;20227;-80
2024/05/02 08:05:06;;;;;;;2.90;1.83;;;22.60;99.90;;;;;;6531675;22;20246;-80
2024/05/02 08:07:35;;;;;;;5.97;1.70;;;22.30;99.90;;;;;;6531763;22;20250;-80
2024/05/02 08:10:04;;;;;;;2.87;1.87;;;22.10;99.90;;;;;;6486987;22;20240;-80
2024/05/02 08:12:32;;;;;;;2.03;1.60;;;22.80;99.90;;;;;;6486551;22;20231;-79
2024/05/02 08:15:01;;;;;;;2.73;1.70;;;22.40;99.90;;;;;;6531581;22;20216;-80
2024/05/02 08:17:32;;;;;;;5.63;1.90;;;22.60;99.90;;;;;;6531237;22;20272;-80
2024/05/02 08:20:00;;;;;;;4.10;1.90;;;23.00;99.90;;;;;;6532157;22;20216;-80
2024/05/02 08:22:29;;;;;;;3.63;1.80;;;23.20;99.90;;;;;;6532135;22;20263;-80
2024/05/02 08:24:57;;;;;;;3.13;1.70;;;23.30;99.90;;;;;;6531952;22;20266;-80
2024/05/02 08:27:26;;;;;;;2.70;1.70;;;23.40;99.90;;;;;;6486736;22;20223;-80
2024/05/02 08:29:55;;;;;;;4.20;1.80;;;23.60;99.90;;;;;;6486720;22;20321;-80
2024/05/02 08:32:24;;;;;;;4.20;1.53;;;23.00;99.90;;;;;;6531638;22;20220;-80
2024/05/02 08:34:55;;;;;;;3.20;1.60;;;23.30;99.90;;;;;;6531474;22;20255;-80
2024/05/02 08:37:23;;;;;;;1.57;1.47;;;23.20;99.90;;;;;;6531682;22;20313;-80
2024/05/02 08:39:52;;;;;;;6.60;1.77;;;23.30;99.90;;;;;;6486665;22;20228;-80
2024/05/02 08:42:20;;;;;;;2.90;1.77;;;22.90;99.90;;;;;;6531401;22;20255;-80
2024/05/02 08:44:50;;;;;;;6.10;1.80;;;23.30;99.90;;;;;;6531666;22;20220;-80
2024/05/02 08:47:20;;;;;;;3.00;1.80;;;23.90;99.90;;;;;;6486381;22;20228;-80
2024/05/02 08:49:52;;;;;;;2.00;1.73;;;23.50;99.90;;;;;;6486583;22;20228;-80
2024/05/02 08:52:23;;;;;;;4.47;1.90;;;23.40;99.90;;;;;;6486247;22;20258;-80
2024/05/02 08:54:52;;;;;;;6.23;2.10;;;23.40;99.90;;;;;;6531131;22;20216;-80
2024/05/02 08:57:21;;;;;;;3.20;1.57;;;23.60;99.90;;;;;;6486566;22;20266;-80
2024/05/02 08:59:52;;;;;;;2.17;1.67;;;24.20;99.90;;;;;;6486487;22;20228;-80
2024/05/02 09:02:22;;;;;;;3.13;1.90;;;23.70;99.90;;;;;;6529473;22;20224;-80
2024/05/02 09:04:52;;;;;;;3.87;1.60;;;23.70;99.90;;;;;;6531285;22;20330;-79
2024/05/02 09:07:26;;;;;;;3.80;1.60;;;24.10;99.90;;;;;;6531073;22;20216;-79
2024/05/02 09:09:54;;;;;;;2.03;1.63;;;24.50;99.90;;;;;;6529049;22;20231;-79
2024/05/02 09:12:23;;;;;;;1.83;1.50;;;24.60;99.90;;;;;;6531131;22;20216;-79
2024/05/02 09:14:51;;;;;;;5.03;1.77;;;24.10;99.90;;;;;;6531263;22;20216;-79
2024/05/02 09:17:20;;;;;;;1.60;1.50;;;24.50;99.90;;;;;;6530985;22;20220;-78
2024/05/02 09:19:48;;;;;;;5.87;1.70;;;24.30;99.90;;;;;;6528814;22;20227;-79
2024/05/02 09:22:17;;;;;;;2.97;1.77;;;24.40;99.90;;;;;;6531049;22;20262;-79
2024/05/02 09:24:49;;;;;;;2.10;1.50;;;25.50;99.90;;;;;;6530822;22;20216;-79
2024/05/02 09:27:18;;;;;;;1.83;1.70;;;25.60;99.90;;;;;;6531154;22;20258;-78
2024/05/02 09:29:46;;;;;;;1.70;1.60;;;25.20;99.90;;;;;;6528829;22;20232;-77
2024/05/02 09:32:15;;;;;;;3.57;1.60;;;25.00;99.90;;;;;;6529079;22;20251;-77
2024/05/02 09:34:45;;;;;;;3.23;1.80;;;25.50;99.90;;;;;;6531092;22;20263;-77
2024/05/02 09:37:20;;;;;;;2.70;1.60;;;26.10;99.90;;;;;;6531475;22;20255;-78
2024/05/02 09:39:53;;;;;;;1.93;1.60;;;26.60;99.90;;;;;;6528963;22;20274;-78
2024/05/02 09:42:22;;;;;;;4.17;1.80;;;26.20;99.90;;;;;;6531164;22;20275;-78
2024/05/02 09:44:54;;;;;;;2.23;1.40;;;26.30;99.90;;;;;;6530839;22;20217;-78
2024/05/02 09:47:29;;;;;;;4.63;1.53;;;26.10;99.90;;;;;;6531090;22;20220;-78
2024/05/02 09:50:03;;;;;;;1.93;1.60;;;25.70;99.90;;;;;;6528713;22;20278;-78
2024/05/02 09:52:32;;;;;;;2.63;1.80;;;25.90;99.90;;;;;;6530037;21;20229;-77
2024/05/02 09:55:03;;;;;;;3.33;1.77;;;25.60;99.90;;;;;;6530480;22;20267;-78
2024/05/02 09:57:32;;;;;;;2.57;1.50;;;26.20;99.90;;;;;;6530720;22;20266;-77
2024/05/02 10:00:03;;;;;;;3.00;1.30;;;26.70;99.90;;;;;;6528330;21;20275;-79
2024/05/02 10:02:32;;;;;;;4.50;1.50;;;26.70;99.90;;;;;;6530938;22;20216;-79
2024/05/02 10:05:06;;;;;;;2.00;1.13;;;26.40;99.90;;;;;;6485353;22;20258;-81
2024/05/02 10:07:37;;;;;;;2.73;1.67;;;27.20;99.90;;;;;;6531099;22;20231;-79
2024/05/02 10:10:22;;;;;;;2.13;1.47;;;27.80;99.20;;;;;;6485810;22;20240;-79
2024/05/02 10:12:54;;;;;;;3.63;1.50;;;26.80;99.20;;;;;;6485703;22;20258;-79
2024/05/02 10:15:23;;;;;;;2.67;1.60;;;25.80;99.90;;;;;;6530635;22;20212;-79
2024/05/02 10:17:52;;;;;;;2.67;1.47;;;25.60;99.60;;;;;;6530388;22;20267;-78
2024/05/02 10:20:21;;;;;;;2.90;1.70;;;26.20;99.80;;;;;;6485432;22;20325;-78
2024/05/02 10:22:49;;;;;;;1.63;1.40;;;26.90;99.90;;;;;;6485418;22;20232;-79
2024/05/02 10:25:30;;;;;;;3.60;1.37;;;26.40;99.80;;;;;;6485614;22;20274;-79
2024/05/02 10:28:02;;;;;;;2.20;1.50;;;26.20;99.00;;;;;;6485328;22;20231;-80
2024/05/02 10:30:32;;;;;;;2.33;1.40;;;26.20;99.90;;;;;;6485386;22;20270;-79
2024/05/02 10:33:01;;;;;;;3.00;1.63;;;27.00;99.30;;;;;;6530591;22;20322;-78
2024/05/02 10:35:29;;;;;;;1.90;1.40;;;26.50;98.70;;;;;;6529891;22;20311;-77
2024/05/02 10:38:02;;;;;;;3.87;1.60;;;25.70;99.20;;;;;;6529937;22;20220;-77
2024/05/02 10:40:33;;;;;;;2.70;1.50;;;25.80;99.90;;;;;;6485142;22;20228;-77
2024/05/02 10:43:02;;;;;;;3.07;1.50;;;25.80;99.90;;;;;;6485348;22;20262;-77
2024/05/02 10:45:31;;;;;;;2.70;1.40;;;25.60;99.90;;;;;;6485410;22;20228;-76
2024/05/02 10:47:59;;;;;;;1.60;1.30;;;25.30;99.90;;;;;;6529790;22;20216;-77
2024/05/02 10:50:35;;;;;;;1.70;1.40;;;25.00;99.90;;;;;;6485316;22;20262;-81
2024/05/02 10:53:04;;;;;;;3.30;1.63;;;24.70;99.90;;;;;;6530605;22;20262;-77
2024/05/02 10:55:39;;;;;;;2.77;1.50;;;24.70;99.90;;;;;;6529771;22;20232;-79
2024/05/02 10:58:09;;;;;;;2.77;1.47;;;24.90;99.90;;;;;;6529916;22;20220;-78
2024/05/02 11:00:38;;;;;;;1.50;1.10;;;25.50;99.90;;;;;;6529368;21;20228;-79
2024/05/02 11:03:06;;;;;;;3.70;1.60;;;25.80;99.90;;;;;;6529863;22;20333;-78
2024/05/02 11:05:35;;;;;;;2.87;1.30;;;26.00;99.40;;;;;;6484937;22;20255;-77
2024/05/02 11:08:03;;;;;;;2.77;1.53;;;26.30;99.30;;;;;;6529658;22;20216;-77
2024/05/02 11:10:35;;;;;;;1.40;1.30;;;26.90;99.70;;;;;;6529985;22;20212;-77
2024/05/02 11:13:04;;;;;;;1.40;1.03;;;26.20;99.30;;;;;;6530154;22;20216;-78
2024/05/02 11:15:33;;;;;;;2.97;0.90;;;26.30;97.50;;;;;;6484785;22;20227;-77
2024/05/02 11:18:01;;;;;;;1.73;0.93;;;26.10;96.10;;;;;;6484536;22;20253;-77
2024/05/02 11:20:30;;;;;;;2.23;1.10;;;26.40;97.30;;;;;;6527410;22;20259;-76
2024/05/02 11:23:00;;;;;;;1.90;1.10;;;26.20;99.50;;;;;;6529590;22;20255;-76
2024/05/02 11:25:30;;;;;;;3.40;1.07;;;26.80;96.30;;;;;;6529783;22;20224;-77
2024/05/02 11:28:01;;;;;;;3.03;1.20;;;26.30;97.20;;;;;;6529679;22;20220;-77
2024/05/02 11:30:31;;;;;;;2.07;1.20;;;26.60;97.00;;;;;;6485172;22;20282;-76
2024/05/02 11:33:00;;;;;;;2.90;1.00;;;26.70;97.90;;;;;;6529831;22;20267;-77
2024/05/02 11:35:30;;;;;;;1.20;1.10;;;27.10;97.40;;;;;;6484944;22;20228;-78
2024/05/02 11:37:59;;;;;;;1.30;1.00;;;27.20;96.30;;;;;;6529792;22;20217;-78
2024/05/02 11:40:27;;;;;;;1.00;0.90;;;27.70;95.90;;;;;;6484878;22;20235;-77
2024/05/02 11:42:56;;;;;;;4.17;1.23;;;26.70;96.10;;;;;;6484140;22;20263;-77
2024/05/02 11:45:27;;;;;;;1.27;1.10;;;26.60;95.40;;;;;;6484739;22;20243;-76
2024/05/02 11:47:57;;;;;;;1.10;1.00;;;26.80;96.60;;;;;;6529822;22;20219;-77
2024/05/02 11:50:25;;;;;;;1.20;1.10;;;27.00;98.30;;;;;;6529861;22;20356;-77
2024/05/02 11:52:54;;;;;;;1.70;1.20;;;27.30;98.00;;;;;;6529719;22;20216;-78
2024/05/02 11:55:22;;;;;;;3.17;1.10;;;27.30;97.50;;;;;;6484843;22;20244;-79
2024/05/02 11:57:51;;;;;;;3.23;1.27;;;27.80;97.30;;;;;;6530027;22;20254;-80
2024/05/02 12:00:19;;;;;;;1.83;1.00;;;27.20;97.60;;;;;;6529528;21;20229;-78
2024/05/02 12:02:51;;;;;;;3.03;1.20;;;27.50;96.50;;;;;;6485330;22;20231;-76
2024/05/02 12:05:19;;;;;;;1.60;1.00;;;26.90;97.40;;;;;;6529615;22;20216;-76
2024/05/02 12:07:48;;;;;;;1.30;0.87;;;27.00;96.70;;;;;;6529473;22;20322;-76
2024/05/02 12:10:17;;;;;;;3.60;1.00;;;26.60;96.00;;;;;;6529460;22;20215;-76
2024/05/02 12:12:45;;;;;;;1.10;1.00;;;27.70;95.60;;;;;;6529418;22;20266;-76
2024/05/02 12:15:14;;;;;;;4.00;1.17;;;26.40;95.60;;;;;;6484517;22;20231;-77
2024/05/02 12:17:43;;;;;;;1.37;1.27;;;26.40;97.30;;;;;;6529100;22;20220;-76
2024/05/02 12:20:14;;;;;;;1.70;1.00;;;26.80;95.70;;;;;;6529635;22;20266;-76
2024/05/02 12:22:42;;;;;;;1.93;1.20;;;26.40;95.20;;;;;;6529823;22;20263;-77
2024/05/02 12:25:11;;;;;;;3.30;1.40;;;26.20;97.20;;;;;;6529327;22;20216;-77
2024/05/02 12:27:39;;;;;;;4.03;1.70;;;25.20;97.70;;;;;;6531682;22;20219;-76
2024/05/02 12:30:09;;;;;;;2.97;1.47;;;24.60;98.20;;;;;;6531622;22;20254;-76
2024/05/02 12:32:37;;;;;;;1.93;1.40;;;25.30;98.20;;;;;;6486657;22;20236;-78
2024/05/02 12:35:06;;;;;;;7.23;1.60;;;26.90;97.40;;;;;;6486178;22;20232;-77
2024/05/02 12:37:37;;;;;;;4.03;1.50;;;26.70;96.50;;;;;;6531494;22;20216;-77
2024/05/02 12:40:06;;;;;;;1.30;1.20;;;26.10;97.80;;;;;;6486588;22;20270;-77
2024/05/02 12:42:35;;;;;;;3.10;1.60;;;25.50;99.90;;;;;;6531548;22;20216;-77
2024/05/02 12:45:04;;;;;;;2.50;1.47;;;25.00;98.80;;;;;;6531403;22;20303;-77
2024/05/02 12:47:32;;;;;;;2.20;1.60;;;24.80;99.90;;;;;;6531734;22;20255;-78
2024/05/02 12:50:01;;;;;;;2.63;1.40;;;26.30;99.20;;;;;;6530970;22;20216;-78
2024/05/02 12:52:30;;;;;;;2.97;1.50;;;27.30;99.10;;;;;;6486205;22;20224;-78
2024/05/02 12:55:02;;;;;;;1.43;1.33;;;27.60;98.70;;;;;;6531706;22;20215;-78
2024/05/02 12:57:35;;;;;;;4.00;1.50;;;28.30;97.80;;;;;;6486007;22;20274;-78